createdAt,value
2018-12-26T00:01:07.023Z,1.10
2018-12-26T00:03:35.488Z,1.00
2018-12-26T00:06:04.279Z,1.00
2018-12-26T00:08:32.816Z,0.90
2018-12-26T00:11:01.377Z,0.90
2018-12-26T00:13:29.835Z,0.90
2018-12-26T00:15:58.324Z,0.90
2018-12-26T00:18:26.872Z,0.90
2018-12-26T00:20:55.627Z,0.90
2018-12-26T00:23:24.189Z,0.90
2018-12-26T00:25:52.729Z,0.80
2018-12-26T00:28:21.260Z,0.80
2018-12-26T00:30:50.113Z,0.80
2018-12-26T00:33:18.661Z,0.80
2018-12-26T00:35:47.584Z,0.70
2018-12-26T00:38:16.053Z,0.70
2018-12-26T00:40:44.520Z,0.70
2018-12-26T00:43:13.089Z,0.70
2018-12-26T00:45:42.492Z,0.70
2018-12-26T00:48:10.952Z,0.60
2018-12-26T00:50:39.444Z,0.60
2018-12-26T00:53:07.980Z,0.50
2018-12-26T00:55:36.541Z,0.50
2018-12-26T00:58:05.084Z,0.50
2018-12-26T01:00:33.621Z,0.50
2018-12-26T01:03:02.121Z,0.40
2018-12-26T01:05:30.677Z,0.50
2018-12-26T01:07:59.187Z,0.50
2018-12-26T01:10:27.675Z,0.40
2018-12-26T01:12:56.444Z,0.40
2018-12-26T01:15:25.008Z,0.40
2018-12-26T01:17:53.819Z,0.40
2018-12-26T01:20:22.356Z,0.40
2018-12-26T01:22:50.846Z,0.40
2018-12-26T01:25:19.384Z,0.40
2018-12-26T01:27:48.172Z,0.40
2018-12-26T01:30:16.717Z,0.40
2018-12-26T01:32:45.625Z,0.40
2018-12-26T01:35:14.232Z,0.40
2018-12-26T01:37:42.720Z,0.30
2018-12-26T01:40:11.181Z,0.40
2018-12-26T01:42:39.961Z,0.30
2018-12-26T01:45:08.625Z,0.30
2018-12-26T01:47:37.433Z,0.30
2018-12-26T01:50:07.309Z,0.30
2018-12-26T01:52:35.879Z,0.30
2018-12-26T01:55:05.253Z,0.20
2018-12-26T01:57:33.788Z,0.20
2018-12-26T02:00:02.277Z,0.20
2018-12-26T02:02:30.740Z,0.20
2018-12-26T02:04:59.236Z,0.10
2018-12-26T02:07:27.772Z,0.20
2018-12-26T02:09:56.262Z,0.10
2018-12-26T02:12:25.012Z,0.10
2018-12-26T02:14:53.904Z,0.10
2018-12-26T02:17:22.469Z,0.10
2018-12-26T02:19:51.004Z,0.00
2018-12-26T02:22:19.496Z,0.00
2018-12-26T02:24:47.961Z,0.00
2018-12-26T02:27:16.488Z,0.00
2018-12-26T02:29:45.329Z,0.00
2018-12-26T02:32:14.195Z,-0.10
2018-12-26T02:34:42.756Z,-0.10
2018-12-26T02:37:11.397Z,-0.10
2018-12-26T02:39:39.896Z,-0.20
2018-12-26T02:42:08.438Z,-0.20
2018-12-26T02:44:36.985Z,-0.20
2018-12-26T02:47:05.548Z,-0.20
2018-12-26T02:49:34.388Z,-0.20
2018-12-26T02:52:03.277Z,-0.20
2018-12-26T02:54:31.816Z,-0.20
2018-12-26T02:57:00.352Z,-0.20
2018-12-26T02:59:29.128Z,-0.20
2018-12-26T03:01:57.664Z,-0.20
2018-12-26T03:04:26.236Z,-0.20
2018-12-26T03:06:54.772Z,-0.30
2018-12-26T03:09:23.341Z,-0.30
2018-12-26T03:11:51.877Z,-0.40
2018-12-26T03:14:21.037Z,-0.40
2018-12-26T03:16:49.574Z,-0.40
2018-12-26T03:19:18.513Z,-0.40
2018-12-26T03:21:46.976Z,-0.50
2018-12-26T03:24:15.449Z,-0.50
2018-12-26T03:26:44.008Z,-0.50
2018-12-26T03:29:12.551Z,-0.50
2018-12-26T03:31:41.122Z,-0.60
2018-12-26T03:34:09.657Z,-0.70
2018-12-26T03:36:38.120Z,-0.70
2018-12-26T03:39:06.682Z,-0.70
2018-12-26T03:41:35.756Z,-0.70
2018-12-26T03:44:04.994Z,-0.70
2018-12-26T03:46:35.389Z,-0.80
2018-12-26T03:49:04.194Z,-0.80
2018-12-26T03:51:32.792Z,-0.80
2018-12-26T03:54:01.448Z,-0.90
2018-12-26T03:56:29.975Z,-0.90
2018-12-26T03:58:58.880Z,-0.90
2018-12-26T04:01:27.840Z,-0.90
2018-12-26T04:03:56.403Z,-0.90
2018-12-26T04:06:25.014Z,-0.90
2018-12-26T04:08:53.582Z,-0.90
2018-12-26T04:11:22.265Z,-1.00
2018-12-26T04:13:50.804Z,-1.00
2018-12-26T04:16:19.292Z,-1.00
2018-12-26T04:18:48.849Z,-1.00
2018-12-26T04:21:17.688Z,-1.00
2018-12-26T04:23:46.566Z,-1.00
2018-12-26T04:26:15.135Z,-1.10
2018-12-26T04:28:43.678Z,-1.10
2018-12-26T04:31:12.237Z,-1.10
2018-12-26T04:33:40.700Z,-1.00
2018-12-26T04:36:09.191Z,-1.00
2018-12-26T04:38:37.655Z,-1.10
2018-12-26T04:41:06.139Z,-1.10
2018-12-26T04:43:34.603Z,-1.10
2018-12-26T04:46:03.092Z,-1.10
2018-12-26T04:48:31.556Z,-1.10
2018-12-26T04:51:00.120Z,-1.20
2018-12-26T04:53:28.579Z,-1.20
2018-12-26T04:55:57.071Z,-1.20
2018-12-26T04:58:25.852Z,-1.20
2018-12-26T05:00:54.640Z,-1.20
2018-12-26T05:03:23.223Z,-1.20
2018-12-26T05:05:52.008Z,-1.30
2018-12-26T05:08:20.497Z,-1.40
2018-12-26T05:10:49.039Z,-1.40
2018-12-26T05:13:17.968Z,-1.40
2018-12-26T05:15:46.500Z,-1.50
2018-12-26T05:18:15.064Z,-1.50
2018-12-26T05:20:43.667Z,-1.60
2018-12-26T05:23:12.226Z,-1.60
2018-12-26T05:25:40.764Z,-1.60
2018-12-26T05:28:09.253Z,-1.60
2018-12-26T05:30:37.722Z,-1.70
2018-12-26T05:33:06.260Z,-1.70
2018-12-26T05:35:35.111Z,-1.70
2018-12-26T05:38:03.906Z,-1.80
2018-12-26T05:40:32.468Z,-1.90
2018-12-26T05:43:00.924Z,-1.90
2018-12-26T05:45:29.416Z,-2.00
2018-12-26T05:47:57.960Z,-2.00
2018-12-26T05:50:26.447Z,-2.00
2018-12-26T05:52:54.916Z,-2.20
2018-12-26T05:55:23.403Z,-2.20
2018-12-26T05:57:51.869Z,-2.20
2018-12-26T06:00:20.672Z,-2.20
2018-12-26T06:02:49.140Z,-2.30
2018-12-26T06:05:17.603Z,-2.30
2018-12-26T06:07:46.092Z,-2.30
2018-12-26T06:10:14.551Z,-2.30
2018-12-26T06:12:43.039Z,-2.40
2018-12-26T06:15:11.572Z,-2.40
2018-12-26T06:17:40.135Z,-2.40
2018-12-26T06:20:08.599Z,-2.40
2018-12-26T06:22:37.091Z,-2.40
2018-12-26T06:25:05.626Z,-2.40
2018-12-26T06:27:34.195Z,-2.50
2018-12-26T06:30:03.195Z,-2.50
2018-12-26T06:32:31.684Z,-2.50
2018-12-26T06:35:00.278Z,-2.50
2018-12-26T06:37:28.807Z,-2.60
2018-12-26T06:39:57.272Z,-2.60
2018-12-26T06:42:25.736Z,-2.60
2018-12-26T06:44:54.223Z,-2.60
2018-12-26T06:47:23.020Z,-2.60
2018-12-26T06:49:51.508Z,-2.60
2018-12-26T06:52:19.976Z,-2.70
2018-12-26T06:54:48.540Z,-2.70
2018-12-26T06:57:17.000Z,-2.70
2018-12-26T06:59:45.490Z,-2.70
2018-12-26T07:02:14.315Z,-2.70
2018-12-26T07:04:42.808Z,-2.70
2018-12-26T07:07:11.276Z,-2.70
2018-12-26T07:09:39.759Z,-2.80
2018-12-26T07:12:08.228Z,-2.80
2018-12-26T07:14:36.723Z,-2.80
2018-12-26T07:17:05.264Z,-2.80
2018-12-26T07:19:33.905Z,-2.80
2018-12-26T07:22:02.804Z,-2.80
2018-12-26T07:24:31.342Z,-2.80
2018-12-26T07:26:59.832Z,-2.80
2018-12-26T07:29:28.635Z,-2.80
2018-12-26T07:31:57.123Z,-2.80
2018-12-26T07:34:25.588Z,-2.80
2018-12-26T07:36:54.076Z,-2.80
2018-12-26T07:39:22.540Z,-2.80
2018-12-26T07:41:51.027Z,-2.70
2018-12-26T07:44:19.851Z,-2.70
2018-12-26T07:46:48.396Z,-2.70
2018-12-26T07:49:16.931Z,-2.70
2018-12-26T07:51:45.496Z,-2.60
2018-12-26T07:54:13.964Z,-2.60
2018-12-26T07:56:42.425Z,-2.60
2018-12-26T07:59:10.911Z,-2.60
2018-12-26T08:01:39.375Z,-2.50
2018-12-26T08:04:07.868Z,-2.50
2018-12-26T08:06:36.337Z,-2.50
2018-12-26T08:09:06.368Z,-2.40
2018-12-26T08:11:34.831Z,-2.50
2018-12-26T08:14:03.320Z,-2.40
2018-12-26T08:16:31.788Z,-2.40
2018-12-26T08:19:00.616Z,-2.30
2018-12-26T08:21:29.404Z,-2.30
2018-12-26T08:23:58.291Z,-2.20
2018-12-26T08:26:27.084Z,-2.10
2018-12-26T08:28:55.548Z,-1.90
2018-12-26T08:31:24.039Z,-1.70
2018-12-26T08:33:52.936Z,-1.30
2018-12-26T08:36:21.852Z,-0.90
2018-12-26T08:38:50.391Z,-0.40
2018-12-26T08:41:19.199Z,-0.20
2018-12-26T08:43:47.738Z,0.10
2018-12-26T08:46:16.567Z,0.40
2018-12-26T08:48:45.024Z,0.40
2018-12-26T08:51:13.508Z,0.50
2018-12-26T08:53:42.044Z,0.90
2018-12-26T08:56:10.505Z,1.70
2018-12-26T08:58:39.060Z,2.60
2018-12-26T09:01:07.515Z,3.40
2018-12-26T09:03:36.344Z,4.50
2018-12-26T09:06:04.807Z,5.70
2018-12-26T09:08:33.292Z,6.70
2018-12-26T09:11:01.752Z,7.30
2018-12-26T09:13:30.579Z,7.40
2018-12-26T09:15:59.044Z,7.80
2018-12-26T09:18:27.527Z,7.40
2018-12-26T09:20:55.986Z,8.20
2018-12-26T09:23:24.816Z,8.30
2018-12-26T09:25:54.122Z,8.70
2018-12-26T09:28:23.003Z,8.20
2018-12-26T09:30:51.460Z,7.20
2018-12-26T09:33:20.016Z,6.40
2018-12-26T09:35:48.556Z,5.70
2018-12-26T09:38:17.049Z,4.80
2018-12-26T09:40:45.576Z,4.60
2018-12-26T09:43:14.073Z,4.30
2018-12-26T09:45:42.595Z,4.40
2018-12-26T09:48:11.085Z,4.40
2018-12-26T09:50:39.616Z,4.20
2018-12-26T09:53:08.104Z,4.30
2018-12-26T09:55:36.560Z,4.30
2018-12-26T09:58:05.415Z,4.20
2018-12-26T10:00:33.880Z,4.70
2018-12-26T10:03:02.363Z,5.30
2018-12-26T10:05:30.828Z,6.10
2018-12-26T10:07:59.356Z,7.00
2018-12-26T10:10:27.920Z,7.30
2018-12-26T10:12:56.380Z,8.00
2018-12-26T10:15:24.868Z,8.70
2018-12-26T10:17:53.327Z,9.00
2018-12-26T10:20:21.819Z,9.10
2018-12-26T10:22:50.349Z,9.80
2018-12-26T10:25:18.912Z,10.90
2018-12-26T10:27:47.375Z,11.20
2018-12-26T10:30:15.868Z,11.70
2018-12-26T10:32:44.400Z,11.90
2018-12-26T10:35:12.868Z,11.60
2018-12-26T10:37:41.357Z,11.80
2018-12-26T10:40:09.816Z,11.40
2018-12-26T10:42:38.304Z,10.80
2018-12-26T10:45:07.138Z,10.00
2018-12-26T10:47:35.697Z,9.30
2018-12-26T10:50:05.927Z,8.60
2018-12-26T10:52:34.415Z,8.50
2018-12-26T10:55:02.867Z,8.60
2018-12-26T10:57:31.424Z,8.40
2018-12-26T11:00:00.088Z,7.90
2018-12-26T11:02:28.820Z,7.60
2018-12-26T11:04:57.278Z,7.80
2018-12-26T11:07:25.767Z,7.70
2018-12-26T11:09:54.254Z,7.30
2018-12-26T11:12:22.784Z,6.80
2018-12-26T11:14:51.267Z,6.60
2018-12-26T11:17:19.792Z,6.50
2018-12-26T11:19:48.520Z,6.50
2018-12-26T11:22:17.340Z,6.60
2018-12-26T11:24:45.833Z,6.60
2018-12-26T11:27:14.292Z,6.20
2018-12-26T11:29:42.912Z,5.70
2018-12-26T11:32:11.368Z,5.40
2018-12-26T11:34:39.852Z,5.10
2018-12-26T11:37:08.312Z,4.90
2018-12-26T11:39:36.940Z,4.80
2018-12-26T11:42:05.463Z,4.60
2018-12-26T11:44:34.020Z,4.30
2018-12-26T11:47:02.483Z,4.10
2018-12-26T11:49:30.941Z,4.00
2018-12-26T11:51:59.495Z,3.90
2018-12-26T11:54:27.951Z,4.00
2018-12-26T11:56:56.436Z,3.90
2018-12-26T11:59:27.282Z,3.80
2018-12-26T12:01:55.164Z,3.70
2018-12-26T12:04:23.629Z,3.70
2018-12-26T12:06:52.259Z,3.70
2018-12-26T12:09:20.720Z,3.50
2018-12-26T12:11:49.733Z,3.30
2018-12-26T12:14:18.263Z,3.30
2018-12-26T12:16:46.824Z,3.20
2018-12-26T12:19:15.360Z,3.20
2018-12-26T12:21:44.065Z,3.30
2018-12-26T12:24:12.596Z,3.30
2018-12-26T12:26:41.085Z,3.70
2018-12-26T12:29:09.621Z,3.80
2018-12-26T12:31:38.176Z,3.90
2018-12-26T12:34:06.635Z,4.00
2018-12-26T12:36:35.677Z,4.00
2018-12-26T12:39:05.948Z,3.80
2018-12-26T12:41:34.432Z,3.70
2018-12-26T12:44:03.212Z,3.70
2018-12-26T12:46:31.996Z,3.60
2018-12-26T12:49:00.652Z,3.30
2018-12-26T12:51:29.428Z,3.00
2018-12-26T12:53:57.923Z,2.90
2018-12-26T12:56:26.447Z,2.90
2018-12-26T12:58:55.284Z,2.80
2018-12-26T13:01:24.280Z,2.70
2018-12-26T13:03:52.981Z,2.70
2018-12-26T13:06:21.580Z,2.70
2018-12-26T13:08:50.145Z,2.80
2018-12-26T13:11:18.680Z,2.80
2018-12-26T13:13:47.244Z,2.80
2018-12-26T13:16:15.704Z,2.70
2018-12-26T13:18:44.563Z,2.80
2018-12-26T13:21:13.023Z,2.90
2018-12-26T13:23:41.488Z,2.90
2018-12-26T13:26:10.237Z,3.00
2018-12-26T13:28:39.104Z,3.00
2018-12-26T13:31:07.692Z,2.90
2018-12-26T13:33:36.156Z,3.00
2018-12-26T13:36:04.712Z,3.00
2018-12-26T13:38:33.270Z,2.90
2018-12-26T13:41:01.829Z,2.90
2018-12-26T13:43:30.703Z,2.90
2018-12-26T13:45:59.191Z,2.90
2018-12-26T13:48:27.652Z,3.00
2018-12-26T13:50:56.131Z,3.00
2018-12-26T13:53:24.592Z,2.70
2018-12-26T13:55:53.156Z,2.70
2018-12-26T13:58:21.615Z,2.70
2018-12-26T14:00:50.099Z,2.70
2018-12-26T14:03:18.900Z,2.70
2018-12-26T14:05:47.453Z,2.70
2018-12-26T14:08:15.995Z,2.70
2018-12-26T14:10:44.823Z,2.70
2018-12-26T14:13:13.384Z,2.60
2018-12-26T14:15:41.863Z,2.50
2018-12-26T14:18:10.324Z,2.50
2018-12-26T14:20:38.816Z,2.40
2018-12-26T14:23:07.273Z,2.30
2018-12-26T14:25:36.120Z,2.30
2018-12-26T14:28:04.676Z,2.30
2018-12-26T14:30:33.136Z,2.30
2018-12-26T14:33:01.621Z,2.30
2018-12-26T14:35:30.156Z,2.30
2018-12-26T14:37:58.712Z,2.20
2018-12-26T14:40:27.524Z,2.20
2018-12-26T14:42:56.080Z,2.20
2018-12-26T14:45:24.892Z,2.20
2018-12-26T14:47:53.379Z,2.10
2018-12-26T14:50:22.104Z,2.10
2018-12-26T14:52:50.560Z,2.10
2018-12-26T14:55:19.328Z,2.10
2018-12-26T14:57:48.220Z,2.10
2018-12-26T15:00:19.968Z,2.10
2018-12-26T15:02:47.151Z,2.10
2018-12-26T15:05:15.640Z,2.10
2018-12-26T15:07:44.199Z,2.10
2018-12-26T15:10:12.867Z,2.10
2018-12-26T15:12:41.395Z,2.10
2018-12-26T15:15:09.879Z,2.20
2018-12-26T15:17:38.374Z,2.10
2018-12-26T15:20:07.520Z,2.10
2018-12-26T15:22:36.304Z,2.00
2018-12-26T15:25:05.368Z,2.00
2018-12-26T15:27:34.196Z,2.00
2018-12-26T15:30:02.806Z,2.00
2018-12-26T15:32:31.370Z,1.90
2018-12-26T15:34:59.904Z,1.90
2018-12-26T15:37:28.458Z,1.90
2018-12-26T15:39:56.991Z,1.90
2018-12-26T15:42:25.476Z,1.80
2018-12-26T15:44:54.380Z,1.80
2018-12-26T15:47:22.863Z,1.80
2018-12-26T15:49:51.323Z,1.80
2018-12-26T15:52:19.807Z,1.80
2018-12-26T15:54:48.716Z,1.80
2018-12-26T15:57:17.172Z,1.80
2018-12-26T15:59:45.660Z,1.80
2018-12-26T16:02:14.121Z,1.80
2018-12-26T16:04:42.968Z,1.80
2018-12-26T16:07:11.428Z,1.80
2018-12-26T16:09:39.914Z,1.80
2018-12-26T16:12:08.443Z,1.80
2018-12-26T16:14:36.928Z,1.80
2018-12-26T16:17:05.471Z,1.80
2018-12-26T16:19:34.031Z,1.80
2018-12-26T16:22:02.487Z,1.80
2018-12-26T16:24:31.143Z,1.80
2018-12-26T16:26:59.683Z,1.80
2018-12-26T16:29:28.164Z,1.80
2018-12-26T16:31:56.700Z,1.70
2018-12-26T16:34:25.184Z,1.80
2018-12-26T16:36:53.924Z,1.80
2018-12-26T16:39:22.483Z,1.80
2018-12-26T16:41:50.945Z,1.80
2018-12-26T16:44:19.476Z,1.80
2018-12-26T16:46:47.960Z,1.80
2018-12-26T16:49:16.503Z,1.80
2018-12-26T16:51:45.128Z,1.80
2018-12-26T16:54:13.664Z,1.80
2018-12-26T16:56:42.148Z,1.80
2018-12-26T16:59:10.968Z,1.80
2018-12-26T17:01:39.456Z,1.70
2018-12-26T17:04:07.915Z,1.70
2018-12-26T17:06:36.407Z,1.70
2018-12-26T17:09:07.206Z,1.70
2018-12-26T17:11:35.767Z,1.70
2018-12-26T17:14:04.292Z,1.70
2018-12-26T17:16:32.751Z,1.70
2018-12-26T17:19:01.588Z,1.70
2018-12-26T17:21:30.127Z,1.70
2018-12-26T17:23:58.688Z,1.70
2018-12-26T17:26:27.140Z,1.70
2018-12-26T17:28:55.635Z,1.70
2018-12-26T17:31:24.164Z,1.70
2018-12-26T17:33:52.647Z,1.70
2018-12-26T17:36:21.104Z,1.70
2018-12-26T17:38:49.660Z,1.70
2018-12-26T17:41:18.195Z,1.70
2018-12-26T17:43:46.684Z,1.70
2018-12-26T17:46:15.215Z,1.70
2018-12-26T17:48:43.783Z,1.70
2018-12-26T17:51:12.508Z,1.70
2018-12-26T17:53:44.116Z,1.70
2018-12-26T17:56:18.940Z,1.70
2018-12-26T17:58:56.304Z,1.70
2018-12-26T18:01:48.824Z,1.70
2018-12-26T18:04:17.304Z,1.70
2018-12-26T18:06:45.847Z,1.70
2018-12-26T18:09:14.404Z,1.70
2018-12-26T18:11:42.859Z,1.70
2018-12-26T18:14:11.319Z,1.70
2018-12-26T18:16:39.800Z,1.70
2018-12-26T18:19:08.259Z,1.70
2018-12-26T18:21:36.749Z,1.70
2018-12-26T18:24:05.719Z,1.70
2018-12-26T18:26:34.508Z,1.70
2018-12-26T18:29:02.967Z,1.70
2018-12-26T18:31:31.452Z,1.70
2018-12-26T18:33:59.908Z,1.70
2018-12-26T18:36:28.459Z,1.70
2018-12-26T18:38:57.224Z,1.70
2018-12-26T18:41:25.713Z,1.70
2018-12-26T18:43:54.250Z,1.70
2018-12-26T18:46:22.876Z,1.80
2018-12-26T18:48:51.332Z,1.80
2018-12-26T18:51:19.863Z,1.80
2018-12-26T18:53:48.358Z,1.80
2018-12-26T18:56:16.890Z,1.80
2018-12-26T18:58:45.439Z,1.90
2018-12-26T19:01:13.896Z,1.90
2018-12-26T19:03:42.456Z,1.90
2018-12-26T19:06:11.336Z,1.90
2018-12-26T19:08:39.820Z,1.90
2018-12-26T19:11:08.283Z,1.90
2018-12-26T19:13:36.769Z,1.90
2018-12-26T19:16:05.310Z,1.90
2018-12-26T19:18:34.152Z,1.90
2018-12-26T19:21:02.614Z,1.90
2018-12-26T19:23:31.524Z,1.90
2018-12-26T19:26:00.059Z,1.90
2018-12-26T19:28:28.597Z,1.90
2018-12-26T19:30:57.156Z,1.90
2018-12-26T19:33:25.611Z,1.90
2018-12-26T19:35:54.096Z,1.90
2018-12-26T19:38:22.547Z,1.90
2018-12-26T19:40:51.305Z,1.80
2018-12-26T19:43:19.835Z,1.90
2018-12-26T19:45:48.320Z,1.90
2018-12-26T19:48:16.952Z,1.80
2018-12-26T19:50:45.436Z,1.80
2018-12-26T19:53:15.058Z,1.70
2018-12-26T19:55:43.732Z,1.80
2018-12-26T19:58:12.191Z,1.80
2018-12-26T20:00:40.724Z,1.80
2018-12-26T20:03:09.584Z,1.80
2018-12-26T20:05:38.187Z,1.80
2018-12-26T20:08:06.668Z,1.80
2018-12-26T20:10:35.135Z,1.70
2018-12-26T20:13:03.619Z,1.60
2018-12-26T20:15:32.079Z,1.60
2018-12-26T20:18:00.876Z,1.60
2018-12-26T20:20:29.407Z,1.70
2018-12-26T20:22:58.616Z,1.70
2018-12-26T20:25:27.132Z,1.70
2018-12-26T20:27:55.616Z,1.70
2018-12-26T20:30:24.149Z,1.70
2018-12-26T20:32:52.708Z,1.80
2018-12-26T20:35:21.239Z,1.70
2018-12-26T20:37:49.733Z,1.80
2018-12-26T20:40:18.269Z,1.80
2018-12-26T20:42:46.800Z,1.80
2018-12-26T20:45:15.715Z,1.80
2018-12-26T20:47:44.267Z,1.80
2018-12-26T20:50:12.793Z,1.80
2018-12-26T20:52:41.328Z,1.80
2018-12-26T20:55:10.151Z,1.90
2018-12-26T20:57:38.690Z,1.90
2018-12-26T21:00:09.492Z,1.90
2018-12-26T21:02:37.955Z,1.90
2018-12-26T21:05:07.749Z,1.90
2018-12-26T21:07:36.346Z,2.00
2018-12-26T21:10:07.083Z,2.00
2018-12-26T21:12:35.612Z,2.10
2018-12-26T21:15:04.940Z,2.10
2018-12-26T21:17:33.476Z,2.10
2018-12-26T21:20:01.972Z,2.00
2018-12-26T21:22:30.507Z,2.00
2018-12-26T21:24:58.969Z,2.00
2018-12-26T21:27:27.523Z,2.00
2018-12-26T21:29:56.051Z,1.90
2018-12-26T21:32:24.615Z,2.00
2018-12-26T21:34:53.147Z,2.00
2018-12-26T21:37:21.641Z,1.90
2018-12-26T21:39:50.172Z,1.90
2018-12-26T21:42:18.656Z,1.90
2018-12-26T21:44:47.548Z,1.90
2018-12-26T21:47:16.106Z,1.90
2018-12-26T21:49:44.640Z,2.00
2018-12-26T21:52:13.508Z,2.00
2018-12-26T21:54:41.963Z,2.00
2018-12-26T21:57:10.448Z,2.00
2018-12-26T21:59:38.912Z,1.90
2018-12-26T22:02:07.467Z,1.90
2018-12-26T22:04:35.928Z,1.80
2018-12-26T22:07:04.415Z,1.80
2018-12-26T22:09:32.947Z,1.90
2018-12-26T22:12:01.768Z,1.80
2018-12-26T22:14:30.308Z,1.80
2018-12-26T22:16:58.864Z,1.80
2018-12-26T22:19:27.328Z,1.80
2018-12-26T22:21:56.103Z,1.80
2018-12-26T22:24:24.564Z,1.70
2018-12-26T22:26:53.375Z,1.70
2018-12-26T22:29:21.903Z,1.70
2018-12-26T22:31:50.364Z,1.80
2018-12-26T22:34:18.927Z,1.80
2018-12-26T22:36:47.461Z,1.80
2018-12-26T22:39:16.021Z,1.80
2018-12-26T22:41:44.479Z,1.90
2018-12-26T22:44:13.035Z,1.90
2018-12-26T22:46:41.939Z,1.90
2018-12-26T22:49:10.436Z,2.00
2018-12-26T22:51:42.116Z,1.90
2018-12-26T22:54:09.172Z,1.80
2018-12-26T22:56:37.633Z,1.90
2018-12-26T22:59:06.115Z,1.80
2018-12-26T23:01:34.572Z,1.90
2018-12-26T23:04:03.054Z,1.90
2018-12-26T23:06:31.515Z,1.90
2018-12-26T23:08:59.972Z,1.90
2018-12-26T23:11:28.456Z,1.90
2018-12-26T23:13:56.916Z,1.90
2018-12-26T23:16:25.400Z,1.90
2018-12-26T23:18:53.860Z,1.90
2018-12-26T23:21:22.343Z,1.90
2018-12-26T23:23:50.804Z,1.90
2018-12-26T23:26:19.364Z,1.90
2018-12-26T23:28:47.819Z,1.80
2018-12-26T23:31:16.304Z,1.80
2018-12-26T23:33:44.839Z,1.80
2018-12-26T23:36:13.325Z,1.80
2018-12-26T23:38:41.779Z,1.80
2018-12-26T23:41:10.577Z,1.80
2018-12-26T23:43:39.037Z,1.80
2018-12-26T23:46:07.572Z,1.80
2018-12-26T23:48:36.052Z,1.70
2018-12-26T23:51:04.808Z,1.70
2018-12-26T23:53:33.619Z,1.70
2018-12-26T23:56:02.385Z,1.70
2018-12-26T23:58:31.173Z,1.70
